createdAt,value
2017-07-10T00:00:22.929Z,941.75
2017-07-10T00:00:50.970Z,941.76
2017-07-10T00:01:19.098Z,941.76
2017-07-10T00:01:47.224Z,941.76
2017-07-10T00:02:15.234Z,941.74
2017-07-10T00:02:43.408Z,941.74
2017-07-10T00:03:11.527Z,941.75
2017-07-10T00:03:39.473Z,941.71
2017-07-10T00:04:07.290Z,941.75
2017-07-10T00:04:35.299Z,941.75
2017-07-10T00:05:03.313Z,941.78
2017-07-10T00:05:31.245Z,941.74
2017-07-10T00:05:59.372Z,941.76
2017-07-10T00:06:27.376Z,941.75
2017-07-10T00:06:55.170Z,941.77
2017-07-10T00:07:23.208Z,941.74
2017-07-10T00:07:51.318Z,941.78
2017-07-10T00:08:19.442Z,941.8
2017-07-10T00:08:47.621Z,941.78
2017-07-10T00:09:15.679Z,941.8
2017-07-10T00:09:43.710Z,941.82
2017-07-10T00:10:11.739Z,941.81
2017-07-10T00:10:39.763Z,941.82
2017-07-10T00:11:07.777Z,941.84
2017-07-10T00:11:35.698Z,941.86
2017-07-10T00:12:03.813Z,941.85
2017-07-10T00:12:31.847Z,941.9
2017-07-10T00:12:59.943Z,941.91
2017-07-10T00:13:27.965Z,941.92
2017-07-10T00:13:56.337Z,941.91
2017-07-10T00:14:24.235Z,941.9
2017-07-10T00:14:52.377Z,941.91
2017-07-10T00:15:20.313Z,941.87
2017-07-10T00:15:48.327Z,941.89
2017-07-10T00:16:16.362Z,941.9
2017-07-10T00:16:44.490Z,941.94
2017-07-10T00:17:12.943Z,941.92
2017-07-10T00:17:40.963Z,941.93
2017-07-10T00:18:09.075Z,941.9
2017-07-10T00:18:37.193Z,941.91
2017-07-10T00:19:05.329Z,941.9
2017-07-10T00:19:33.263Z,941.92
2017-07-10T00:20:01.268Z,941.9
2017-07-10T00:20:29.383Z,941.9
2017-07-10T00:20:57.496Z,941.89
2017-07-10T00:21:25.536Z,941.91
2017-07-10T00:21:53.658Z,941.96
2017-07-10T00:22:21.779Z,941.91
2017-07-10T00:22:49.698Z,941.9
2017-07-10T00:23:17.732Z,941.91
2017-07-10T00:23:45.648Z,941.89
2017-07-10T00:24:13.592Z,941.89
2017-07-10T00:24:41.703Z,941.94
2017-07-10T00:25:09.636Z,941.93
2017-07-10T00:25:37.747Z,941.95
2017-07-10T00:26:05.635Z,941.94
2017-07-10T00:26:33.628Z,941.94
2017-07-10T00:27:01.538Z,941.96
2017-07-10T00:27:29.461Z,941.98
2017-07-10T00:27:57.587Z,941.96
2017-07-10T00:28:25.685Z,942
2017-07-10T00:28:53.817Z,941.97
2017-07-10T00:29:21.878Z,941.96
2017-07-10T00:29:49.785Z,941.99
2017-07-10T00:30:17.910Z,941.96
2017-07-10T00:30:46.119Z,941.94
2017-07-10T00:31:14.093Z,941.94
2017-07-10T00:31:56.899Z,941.97
2017-07-10T00:32:25.277Z,941.94
2017-07-10T00:32:53.857Z,941.98
2017-07-10T00:33:21.897Z,941.93
2017-07-10T00:33:49.910Z,941.96
2017-07-10T00:34:17.994Z,941.94
2017-07-10T00:34:46.127Z,941.91
2017-07-10T00:35:14.162Z,941.92
2017-07-10T00:35:42.290Z,941.98
2017-07-10T00:36:10.302Z,941.93
2017-07-10T00:36:38.406Z,941.93
2017-07-10T00:37:06.545Z,941.93
2017-07-10T00:37:34.647Z,941.94
2017-07-10T00:38:02.547Z,941.89
2017-07-10T00:38:30.267Z,941.93
2017-07-10T00:38:58.071Z,941.96
2017-07-10T00:39:25.971Z,941.94
2017-07-10T00:39:53.962Z,941.95
2017-07-10T00:40:22.102Z,941.88
2017-07-10T00:40:50.151Z,941.9
2017-07-10T00:41:18.082Z,941.94
2017-07-10T00:41:46.113Z,941.94
2017-07-10T00:42:14.554Z,941.93
2017-07-10T00:42:42.692Z,941.9
2017-07-10T00:43:10.705Z,941.9
2017-07-10T00:43:38.639Z,941.9
2017-07-10T00:44:07.053Z,941.9
2017-07-10T00:44:35.090Z,941.89
2017-07-10T00:45:03.100Z,941.88
2017-07-10T00:45:31.024Z,941.92
2017-07-10T00:45:59.035Z,941.94
2017-07-10T00:46:27.153Z,941.92
2017-07-10T00:46:55.087Z,941.96
2017-07-10T00:47:23.116Z,941.95
2017-07-10T00:47:51.223Z,941.92
2017-07-10T00:48:19.327Z,941.95
2017-07-10T00:48:47.355Z,941.94
2017-07-10T00:49:15.662Z,941.95
2017-07-10T00:49:43.700Z,941.97
2017-07-10T00:50:11.787Z,941.99
2017-07-10T00:50:39.718Z,942
2017-07-10T00:51:07.849Z,941.96
2017-07-10T00:51:35.880Z,941.98
2017-07-10T00:52:03.981Z,941.98
2017-07-10T00:52:32.014Z,941.98
2017-07-10T00:53:00.121Z,942
2017-07-10T00:53:28.189Z,942.01
2017-07-10T00:53:56.251Z,941.98
2017-07-10T00:54:24.264Z,942.01
2017-07-10T00:54:52.286Z,941.99
2017-07-10T00:55:20.199Z,942
2017-07-10T00:55:48.149Z,941.97
2017-07-10T00:56:16.267Z,942.01
2017-07-10T00:56:44.296Z,942.02
2017-07-10T00:57:12.306Z,942.02
2017-07-10T00:57:40.432Z,942
2017-07-10T00:58:08.561Z,942.01
2017-07-10T00:58:36.484Z,942.03
2017-07-10T00:59:04.598Z,942
2017-07-10T00:59:32.818Z,942.03
2017-07-10T01:00:00.975Z,942.04
2017-07-10T01:00:28.885Z,942.02
2017-07-10T01:00:56.996Z,942.07
2017-07-10T01:01:25.124Z,942.03
2017-07-10T01:01:53.252Z,942.04
2017-07-10T01:02:21.250Z,942.03
2017-07-10T01:02:49.271Z,942.02
2017-07-10T01:03:17.398Z,942.03
2017-07-10T01:03:45.227Z,942.03
2017-07-10T01:04:13.257Z,942.01
2017-07-10T01:04:41.390Z,942.04
2017-07-10T01:05:09.413Z,942.05
2017-07-10T01:05:37.510Z,942.03
2017-07-10T01:06:05.648Z,942.02
2017-07-10T01:06:33.546Z,942.06
2017-07-10T01:07:01.549Z,942.05
2017-07-10T01:07:29.573Z,942.03
2017-07-10T01:07:57.476Z,941.98
2017-07-10T01:08:25.395Z,942.03
2017-07-10T01:08:53.393Z,942.03
2017-07-10T01:09:21.498Z,942
2017-07-10T01:09:49.404Z,942.02
2017-07-10T01:10:17.513Z,942.01
2017-07-10T01:10:45.613Z,942
2017-07-10T01:11:13.716Z,941.97
2017-07-10T01:11:41.839Z,942
2017-07-10T01:12:09.969Z,942
2017-07-10T01:12:38.097Z,941.99
2017-07-10T01:13:06.206Z,942.01
2017-07-10T01:13:34.309Z,941.98
2017-07-10T01:14:02.132Z,941.98
2017-07-10T01:14:30.170Z,942
2017-07-10T01:14:58.219Z,941.95
2017-07-10T01:15:26.367Z,941.96
2017-07-10T01:15:54.376Z,941.99
2017-07-10T01:16:22.503Z,942.01
2017-07-10T01:16:50.244Z,941.98
2017-07-10T01:17:18.360Z,941.96
2017-07-10T01:17:46.167Z,941.99
2017-07-10T01:18:14.075Z,941.99
2017-07-10T01:18:41.896Z,941.94
2017-07-10T01:19:10.253Z,941.97
2017-07-10T01:19:38.362Z,942.02
2017-07-10T01:20:06.383Z,941.96
2017-07-10T01:20:34.507Z,941.97
2017-07-10T01:21:02.631Z,941.95
2017-07-10T01:21:30.638Z,941.96
2017-07-10T01:21:58.657Z,941.93
2017-07-10T01:22:26.705Z,941.96
2017-07-10T01:22:54.761Z,941.96
2017-07-10T01:23:22.677Z,941.98
2017-07-10T01:23:50.829Z,941.97
2017-07-10T01:24:18.864Z,941.9
2017-07-10T01:24:46.877Z,941.91
2017-07-10T01:25:14.811Z,941.9
2017-07-10T01:25:42.829Z,941.91
2017-07-10T01:26:10.756Z,941.93
2017-07-10T01:26:38.566Z,941.91
2017-07-10T01:27:06.586Z,941.85
2017-07-10T01:27:34.608Z,941.9
2017-07-10T01:28:02.640Z,941.92
2017-07-10T01:28:30.749Z,941.91
2017-07-10T01:28:58.689Z,941.87
2017-07-10T01:29:26.607Z,941.88
2017-07-10T01:29:54.695Z,941.84
2017-07-10T01:30:22.927Z,941.81
2017-07-10T01:30:51.022Z,941.83
2017-07-10T01:31:19.135Z,941.84
2017-07-10T01:31:47.271Z,941.81
2017-07-10T01:32:15.381Z,941.86
2017-07-10T01:32:43.482Z,941.83
2017-07-10T01:33:11.499Z,941.85
2017-07-10T01:33:39.484Z,941.85
2017-07-10T01:34:07.190Z,941.84
2017-07-10T01:34:35.406Z,941.87
2017-07-10T01:35:03.425Z,941.88
2017-07-10T01:35:31.470Z,941.9
2017-07-10T01:35:59.484Z,941.89
2017-07-10T01:36:27.403Z,941.88
2017-07-10T01:36:55.515Z,941.89
2017-07-10T01:37:23.529Z,941.9
2017-07-10T01:37:51.558Z,941.88
2017-07-10T01:38:19.659Z,941.9
2017-07-10T01:38:47.794Z,941.87
2017-07-10T01:39:15.905Z,941.88
2017-07-10T01:39:44.045Z,941.89
2017-07-10T01:40:12.173Z,941.91
2017-07-10T01:40:40.334Z,941.92
2017-07-10T01:41:08.354Z,941.92
2017-07-10T01:41:36.378Z,941.91
2017-07-10T01:42:04.383Z,941.9
2017-07-10T01:42:32.502Z,941.93
2017-07-10T01:43:00.414Z,941.9
2017-07-10T01:43:28.295Z,941.92
2017-07-10T01:43:56.414Z,941.92
2017-07-10T01:44:24.727Z,941.92
2017-07-10T01:44:52.645Z,941.91
2017-07-10T01:45:20.573Z,941.9
2017-07-10T01:45:48.717Z,941.92
2017-07-10T01:46:16.749Z,941.94
2017-07-10T01:46:44.565Z,941.9
2017-07-10T01:47:12.587Z,941.9
2017-07-10T01:47:40.595Z,941.88
2017-07-10T01:48:08.608Z,941.89
2017-07-10T01:48:36.597Z,941.88
2017-07-10T01:49:04.716Z,941.86
2017-07-10T01:49:32.938Z,941.9
2017-07-10T01:50:00.969Z,941.87
2017-07-10T01:50:28.903Z,941.84
2017-07-10T01:50:56.937Z,941.88
2017-07-10T01:51:24.970Z,941.84
2017-07-10T01:51:53.097Z,941.89
2017-07-10T01:52:21.148Z,941.87
2017-07-10T01:52:49.262Z,941.87
2017-07-10T01:53:17.399Z,941.9
2017-07-10T01:53:45.584Z,941.87
2017-07-10T01:54:13.468Z,941.85
2017-07-10T01:54:41.573Z,941.89
2017-07-10T01:55:09.693Z,941.88
2017-07-10T01:55:37.832Z,941.88
2017-07-10T01:56:05.857Z,941.88
2017-07-10T01:56:33.892Z,941.86
2017-07-10T01:57:02.020Z,941.87
2017-07-10T01:57:30.113Z,941.89
2017-07-10T01:57:58.252Z,941.87
2017-07-10T01:58:26.224Z,941.88
2017-07-10T01:58:54.352Z,941.89
2017-07-10T01:59:22.371Z,941.91
2017-07-10T01:59:50.373Z,941.85
2017-07-10T02:00:18.292Z,941.91
2017-07-10T02:00:46.232Z,941.87
2017-07-10T02:01:14.321Z,941.88
2017-07-10T02:01:42.398Z,941.87
2017-07-10T02:02:10.504Z,941.9
2017-07-10T02:02:38.526Z,941.92
2017-07-10T02:03:06.519Z,941.86
2017-07-10T02:03:34.611Z,941.89
2017-07-10T02:04:02.697Z,941.92
2017-07-10T02:04:30.826Z,941.92
2017-07-10T02:04:58.881Z,941.94
2017-07-10T02:05:26.996Z,941.94
2017-07-10T02:05:54.901Z,941.94
2017-07-10T02:06:22.912Z,941.94
2017-07-10T02:06:51.019Z,941.92
2017-07-10T02:07:19.028Z,941.96
2017-07-10T02:07:47.065Z,941.96
2017-07-10T02:08:15.079Z,941.99
2017-07-10T02:08:43.095Z,941.96
2017-07-10T02:09:11.210Z,941.99
2017-07-10T02:09:39.345Z,941.97
2017-07-10T02:10:07.368Z,941.96
2017-07-10T02:10:35.344Z,941.99
2017-07-10T02:11:03.475Z,941.99
2017-07-10T02:11:31.393Z,941.99
2017-07-10T02:11:59.399Z,942.01
2017-07-10T02:12:27.438Z,941.99
2017-07-10T02:12:55.359Z,941.98
2017-07-10T02:13:23.367Z,941.94
2017-07-10T02:13:51.519Z,941.93
2017-07-10T02:14:19.721Z,941.97
2017-07-10T02:14:47.847Z,941.95
2017-07-10T02:15:15.998Z,941.9
2017-07-10T02:15:43.909Z,941.95
2017-07-10T02:16:12.022Z,941.96
2017-07-10T02:16:40.162Z,941.91
2017-07-10T02:17:08.194Z,941.92
2017-07-10T02:17:36.230Z,941.92
2017-07-10T02:18:04.354Z,941.91
2017-07-10T02:18:32.362Z,941.91
2017-07-10T02:19:00.490Z,941.94
2017-07-10T02:19:28.433Z,941.92
2017-07-10T02:19:56.804Z,941.92
2017-07-10T02:20:24.934Z,941.89
2017-07-10T02:20:52.975Z,941.91
2017-07-10T02:21:21.089Z,941.93
2017-07-10T02:21:49.208Z,941.95
2017-07-10T02:22:17.023Z,941.88
2017-07-10T02:22:44.959Z,941.9
2017-07-10T02:23:12.857Z,941.87
2017-07-10T02:23:40.910Z,941.89
2017-07-10T02:24:08.829Z,941.9
2017-07-10T02:24:36.934Z,941.89
2017-07-10T02:25:05.056Z,941.91
2017-07-10T02:25:33.085Z,941.9
2017-07-10T02:26:01.190Z,941.9
2017-07-10T02:26:29.273Z,941.94
2017-07-10T02:26:57.379Z,941.92
2017-07-10T02:27:25.384Z,941.9
2017-07-10T02:27:53.398Z,941.91
2017-07-10T02:28:21.433Z,941.85
2017-07-10T02:28:49.329Z,941.91
2017-07-10T02:29:17.363Z,941.87
2017-07-10T02:29:45.355Z,941.9
2017-07-10T02:30:13.379Z,941.89
2017-07-10T02:30:41.379Z,941.88
2017-07-10T02:31:09.387Z,941.89
2017-07-10T02:31:37.305Z,941.91
2017-07-10T02:32:05.351Z,941.92
2017-07-10T02:32:33.173Z,941.9
2017-07-10T02:33:01.206Z,941.9
2017-07-10T02:33:29.108Z,941.9
2017-07-10T02:33:57.025Z,941.87
2017-07-10T02:34:24.942Z,941.91
2017-07-10T02:34:53.107Z,941.92
2017-07-10T02:35:21.242Z,941.9
2017-07-10T02:35:49.367Z,941.9
2017-07-10T02:36:17.390Z,941.9
2017-07-10T02:36:45.411Z,941.91
2017-07-10T02:37:13.534Z,941.92
2017-07-10T02:37:41.645Z,941.94
2017-07-10T02:38:09.683Z,941.9
2017-07-10T02:38:37.491Z,941.96
2017-07-10T02:39:05.404Z,941.92
2017-07-10T02:39:33.529Z,941.92
2017-07-10T02:40:01.416Z,941.92
2017-07-10T02:40:29.257Z,941.91
2017-07-10T02:40:57.364Z,941.93
2017-07-10T02:41:25.258Z,941.92
2017-07-10T02:41:53.183Z,941.92
2017-07-10T02:42:21.107Z,941.91
2017-07-10T02:42:49.127Z,941.89
2017-07-10T02:43:17.153Z,941.91
2017-07-10T02:43:45.073Z,941.9
2017-07-10T02:44:12.903Z,941.92
2017-07-10T02:44:40.958Z,941.92
2017-07-10T02:45:08.775Z,941.91
2017-07-10T02:45:36.781Z,941.93
2017-07-10T02:46:04.904Z,941.92
2017-07-10T02:46:32.853Z,941.94
2017-07-10T02:47:00.864Z,941.94
2017-07-10T02:47:28.910Z,941.93
2017-07-10T02:47:57.028Z,941.91
2017-07-10T02:48:24.966Z,941.94
2017-07-10T02:48:53.012Z,941.92
2017-07-10T02:49:20.741Z,941.96
2017-07-10T02:49:48.893Z,941.94
2017-07-10T02:50:17.006Z,941.93
2017-07-10T02:50:45.025Z,941.94
2017-07-10T02:51:13.050Z,941.93
2017-07-10T02:51:40.946Z,941.91
2017-07-10T02:52:08.971Z,941.91
2017-07-10T02:52:36.976Z,941.91
2017-07-10T02:53:05.109Z,941.9
2017-07-10T02:53:33.016Z,941.9
2017-07-10T02:54:01.034Z,941.94
2017-07-10T02:54:28.964Z,941.9
2017-07-10T02:54:57.133Z,941.93
2017-07-10T02:55:25.204Z,941.96
2017-07-10T02:55:53.264Z,941.94
2017-07-10T02:56:21.279Z,941.94
2017-07-10T02:56:49.415Z,941.93
2017-07-10T02:57:17.222Z,941.93
2017-07-10T02:57:45.266Z,941.98
2017-07-10T02:58:13.388Z,941.93
2017-07-10T02:58:41.512Z,941.95
2017-07-10T02:59:09.638Z,941.93
2017-07-10T02:59:37.636Z,941.95
2017-07-10T03:00:05.790Z,941.93
2017-07-10T03:00:33.905Z,941.95
2017-07-10T03:01:02.035Z,941.94
2017-07-10T03:01:29.967Z,941.95
2017-07-10T03:01:57.982Z,941.94
2017-07-10T03:02:25.991Z,941.95
2017-07-10T03:02:54.104Z,941.94
2017-07-10T03:03:22.237Z,941.89
2017-07-10T03:03:50.255Z,941.92
2017-07-10T03:04:18.398Z,941.9
2017-07-10T03:04:46.432Z,941.9
2017-07-10T03:05:14.547Z,941.89
2017-07-10T03:05:42.666Z,941.89
2017-07-10T03:06:10.786Z,941.92
2017-07-10T03:06:38.813Z,941.9
2017-07-10T03:07:06.920Z,941.85
2017-07-10T03:07:34.922Z,941.86
2017-07-10T03:08:03.039Z,941.89
2017-07-10T03:08:31.055Z,941.9
2017-07-10T03:08:59.187Z,941.91
2017-07-10T03:09:27.192Z,941.92
2017-07-10T03:09:55.129Z,941.92
2017-07-10T03:10:22.943Z,941.9
2017-07-10T03:10:51.076Z,941.88
2017-07-10T03:11:19.200Z,941.89
2017-07-10T03:11:47.221Z,941.92
2017-07-10T03:12:15.026Z,941.88
2017-07-10T03:12:43.027Z,941.88
2017-07-10T03:13:11.145Z,941.89
2017-07-10T03:13:39.255Z,941.89
2017-07-10T03:14:07.164Z,941.88
2017-07-10T03:14:35.285Z,941.88
2017-07-10T03:15:03.510Z,941.85
2017-07-10T03:15:31.494Z,941.85
2017-07-10T03:15:59.499Z,941.91
2017-07-10T03:16:27.436Z,941.89
2017-07-10T03:16:55.573Z,941.87
2017-07-10T03:17:23.508Z,941.89
2017-07-10T03:17:51.541Z,941.87
2017-07-10T03:18:19.466Z,941.9
2017-07-10T03:18:47.492Z,941.92
2017-07-10T03:19:15.616Z,941.88
2017-07-10T03:19:43.632Z,941.89
2017-07-10T03:20:12.010Z,941.91
2017-07-10T03:20:40.013Z,941.9
2017-07-10T03:21:08.132Z,941.92
2017-07-10T03:21:36.265Z,941.91
2017-07-10T03:22:04.191Z,941.91
2017-07-10T03:22:32.089Z,941.9
2017-07-10T03:22:59.943Z,941.94
2017-07-10T03:23:27.746Z,941.91
2017-07-10T03:23:55.815Z,941.94
2017-07-10T03:24:23.690Z,941.91
2017-07-10T03:24:51.818Z,941.91
2017-07-10T03:25:19.948Z,941.89
2017-07-10T03:25:47.961Z,941.88
2017-07-10T03:26:15.998Z,941.88
2017-07-10T03:26:43.918Z,941.9
2017-07-10T03:27:11.942Z,941.91
2017-07-10T03:27:39.942Z,941.9
2017-07-10T03:28:07.994Z,941.91
2017-07-10T03:28:36.047Z,941.9
2017-07-10T03:29:04.144Z,941.86
2017-07-10T03:29:32.179Z,941.88
2017-07-10T03:30:00.273Z,941.92
2017-07-10T03:30:28.088Z,941.9
2017-07-10T03:30:56.100Z,941.87
2017-07-10T03:31:24.123Z,941.88
2017-07-10T03:31:52.264Z,941.91
2017-07-10T03:32:20.390Z,941.89
2017-07-10T03:32:48.208Z,941.92
2017-07-10T03:33:16.222Z,941.89
2017-07-10T03:33:44.343Z,941.9
2017-07-10T03:34:12.392Z,941.9
2017-07-10T03:34:40.526Z,941.9
2017-07-10T03:35:08.335Z,941.88
2017-07-10T03:35:36.463Z,941.91
2017-07-10T03:36:04.401Z,941.89
2017-07-10T03:36:32.426Z,941.88
2017-07-10T03:37:00.339Z,941.88
2017-07-10T03:37:28.150Z,941.88
2017-07-10T03:37:56.180Z,941.9
2017-07-10T03:38:24.286Z,941.89
2017-07-10T03:38:52.305Z,941.89
2017-07-10T03:39:20.304Z,941.89
2017-07-10T03:39:48.342Z,941.87
2017-07-10T03:40:16.245Z,941.92
2017-07-10T03:40:44.344Z,941.88
2017-07-10T03:41:12.455Z,941.9
2017-07-10T03:41:40.487Z,941.87
2017-07-10T03:42:08.603Z,941.9
2017-07-10T03:42:36.640Z,941.91
2017-07-10T03:43:04.773Z,941.87
2017-07-10T03:43:32.791Z,941.9
2017-07-10T03:44:00.901Z,941.92
2017-07-10T03:44:28.918Z,941.89
2017-07-10T03:44:56.908Z,941.92
2017-07-10T03:45:25.036Z,941.87
2017-07-10T03:45:53.136Z,941.91
2017-07-10T03:46:21.260Z,941.91
2017-07-10T03:46:49.300Z,941.92
2017-07-10T03:47:17.409Z,941.9
2017-07-10T03:47:45.509Z,941.95
2017-07-10T03:48:13.433Z,941.91
2017-07-10T03:48:41.454Z,941.89
2017-07-10T03:49:09.574Z,941.91
2017-07-10T03:49:37.590Z,941.87
2017-07-10T03:50:05.672Z,941.89
2017-07-10T03:50:33.972Z,941.91
2017-07-10T03:51:01.977Z,941.95
2017-07-10T03:51:29.903Z,941.92
2017-07-10T03:51:58.030Z,941.87
2017-07-10T03:52:25.960Z,941.87
2017-07-10T03:52:53.996Z,941.92
2017-07-10T03:53:22.080Z,941.86
2017-07-10T03:53:50.099Z,941.89
2017-07-10T03:54:18.125Z,941.86
2017-07-10T03:54:46.251Z,941.85
2017-07-10T03:55:14.370Z,941.83
2017-07-10T03:55:42.575Z,941.82
2017-07-10T03:56:10.694Z,941.84
2017-07-10T03:56:38.506Z,941.84
2017-07-10T03:57:06.523Z,941.85
2017-07-10T03:57:34.543Z,941.83
2017-07-10T03:58:02.675Z,941.84
2017-07-10T03:58:30.592Z,941.82
2017-07-10T03:58:58.398Z,941.85
2017-07-10T03:59:26.529Z,941.81
2017-07-10T03:59:54.650Z,941.84
2017-07-10T04:00:22.762Z,941.83
2017-07-10T04:00:50.794Z,941.83
2017-07-10T04:01:18.933Z,941.8
2017-07-10T04:01:46.931Z,941.84
2017-07-10T04:02:14.858Z,941.77
2017-07-10T04:02:42.705Z,941.79
2017-07-10T04:03:10.832Z,941.79
2017-07-10T04:03:38.744Z,941.79
2017-07-10T04:04:06.651Z,941.73
2017-07-10T04:04:34.661Z,941.79
2017-07-10T04:05:02.651Z,941.79
2017-07-10T04:05:30.702Z,941.78
2017-07-10T04:05:58.830Z,941.77
2017-07-10T04:06:26.956Z,941.79
2017-07-10T04:06:54.960Z,941.84
2017-07-10T04:07:22.985Z,941.8
2017-07-10T04:07:50.878Z,941.79
2017-07-10T04:08:18.995Z,941.8
2017-07-10T04:08:46.904Z,941.79
2017-07-10T04:09:15.036Z,941.79
2017-07-10T04:09:43.171Z,941.77
2017-07-10T04:10:11.210Z,941.82
2017-07-10T04:10:39.211Z,941.81
2017-07-10T04:11:07.039Z,941.8
2017-07-10T04:11:35.059Z,941.83
2017-07-10T04:12:03.173Z,941.82
2017-07-10T04:12:31.302Z,941.84
2017-07-10T04:12:59.311Z,941.85
2017-07-10T04:13:27.228Z,941.84
2017-07-10T04:13:55.235Z,941.83
2017-07-10T04:14:23.146Z,941.86
2017-07-10T04:14:51.144Z,941.87
2017-07-10T04:15:19.074Z,941.84
2017-07-10T04:15:47.406Z,941.83
2017-07-10T04:16:15.428Z,941.85
2017-07-10T04:16:43.546Z,941.82
2017-07-10T04:17:11.542Z,941.87
2017-07-10T04:17:39.554Z,941.82
2017-07-10T04:18:07.685Z,941.83
2017-07-10T04:18:35.712Z,941.87
2017-07-10T04:19:03.547Z,941.81
2017-07-10T04:19:31.562Z,941.82
2017-07-10T04:19:59.677Z,941.87
2017-07-10T04:20:28.045Z,941.83
2017-07-10T04:20:55.848Z,941.82
2017-07-10T04:21:23.964Z,941.85
2017-07-10T04:21:51.774Z,941.82
2017-07-10T04:22:19.677Z,941.82
2017-07-10T04:22:47.634Z,941.82
2017-07-10T04:23:15.658Z,941.82
2017-07-10T04:23:43.581Z,941.84
2017-07-10T04:24:11.586Z,941.82
2017-07-10T04:24:39.791Z,941.81
2017-07-10T04:25:07.581Z,941.85
2017-07-10T04:25:35.716Z,941.82
2017-07-10T04:26:03.651Z,941.84
2017-07-10T04:26:31.679Z,941.86
2017-07-10T04:26:59.795Z,941.85
2017-07-10T04:27:27.820Z,941.83
2017-07-10T04:27:55.833Z,941.83
2017-07-10T04:28:23.970Z,941.79
2017-07-10T04:28:51.814Z,941.76
2017-07-10T04:29:19.933Z,941.78
2017-07-10T04:29:47.969Z,941.78
2017-07-10T04:30:16.097Z,941.8
2017-07-10T04:30:44.112Z,941.8
2017-07-10T04:31:12.242Z,941.79
2017-07-10T04:31:40.267Z,941.77
2017-07-10T04:32:08.317Z,941.74
2017-07-10T04:32:36.230Z,941.77
2017-07-10T04:33:04.276Z,941.77
2017-07-10T04:33:32.305Z,941.76
2017-07-10T04:34:00.311Z,941.78
2017-07-10T04:34:28.417Z,941.78
2017-07-10T04:34:56.453Z,941.75
2017-07-10T04:35:24.450Z,941.73
2017-07-10T04:35:52.450Z,941.71
2017-07-10T04:36:20.490Z,941.72
2017-07-10T04:36:48.621Z,941.72
2017-07-10T04:37:16.756Z,941.74
2017-07-10T04:37:44.786Z,941.67
2017-07-10T04:38:12.803Z,941.7
2017-07-10T04:38:40.835Z,941.68
2017-07-10T04:39:08.877Z,941.67
2017-07-10T04:39:37.015Z,941.63
2017-07-10T04:40:05.138Z,941.64
2017-07-10T04:40:33.187Z,941.66
2017-07-10T04:41:01.318Z,941.61
2017-07-10T04:41:29.440Z,941.62
2017-07-10T04:41:57.464Z,941.64
2017-07-10T04:42:25.640Z,941.64
2017-07-10T04:42:53.670Z,941.61
2017-07-10T04:43:21.564Z,941.58
2017-07-10T04:43:49.587Z,941.56
2017-07-10T04:44:17.507Z,941.57
2017-07-10T04:44:45.653Z,941.58
2017-07-10T04:45:13.768Z,941.57
2017-07-10T04:45:41.838Z,941.55
2017-07-10T04:46:09.845Z,941.57
2017-07-10T04:46:37.856Z,941.52
2017-07-10T04:47:05.760Z,941.49
2017-07-10T04:47:33.771Z,941.53
2017-07-10T04:48:01.898Z,941.5
2017-07-10T04:48:29.924Z,941.49
2017-07-10T04:48:57.955Z,941.5
2017-07-10T04:49:25.985Z,941.51
2017-07-10T04:49:54.004Z,941.52
2017-07-10T04:50:21.948Z,941.53
2017-07-10T04:50:50.064Z,941.51
2017-07-10T04:51:18.160Z,941.49
2017-07-10T04:51:46.274Z,941.48
2017-07-10T04:52:14.307Z,941.44
2017-07-10T04:52:42.351Z,941.46
2017-07-10T04:53:10.475Z,941.41
2017-07-10T04:53:38.606Z,941.45
2017-07-10T04:54:06.632Z,941.46
2017-07-10T04:54:34.634Z,941.46
2017-07-10T04:55:02.780Z,941.44
2017-07-10T04:55:30.606Z,941.43
2017-07-10T04:55:58.717Z,941.42
2017-07-10T04:56:26.758Z,941.44
2017-07-10T04:56:54.783Z,941.47
2017-07-10T04:57:22.792Z,941.45
2017-07-10T04:57:50.695Z,941.46
2017-07-10T04:58:18.621Z,941.42
2017-07-10T04:58:46.731Z,941.46
2017-07-10T04:59:14.643Z,941.46
2017-07-10T04:59:42.664Z,941.46
2017-07-10T05:00:10.762Z,941.47
2017-07-10T05:00:38.870Z,941.46
2017-07-10T05:01:07.107Z,941.47
2017-07-10T05:01:35.040Z,941.46
2017-07-10T05:02:03.124Z,941.48
2017-07-10T05:02:31.126Z,941.42
2017-07-10T05:02:59.214Z,941.46
2017-07-10T05:03:27.246Z,941.44
2017-07-10T05:03:55.393Z,941.44
2017-07-10T05:04:23.496Z,941.44
2017-07-10T05:04:51.606Z,941.43
2017-07-10T05:05:19.418Z,941.4
2017-07-10T05:05:47.547Z,941.45
2017-07-10T05:06:15.667Z,941.47
2017-07-10T05:06:43.678Z,941.47
2017-07-10T05:07:11.522Z,941.48
2017-07-10T05:07:39.564Z,941.48
2017-07-10T05:08:07.687Z,941.49
2017-07-10T05:08:35.833Z,941.46
2017-07-10T05:09:03.870Z,941.46
2017-07-10T05:09:31.965Z,941.46
2017-07-10T05:09:59.890Z,941.48
2017-07-10T05:10:27.898Z,941.43
2017-07-10T05:10:55.889Z,941.43
2017-07-10T05:11:23.833Z,941.45
2017-07-10T05:11:51.972Z,941.43
2017-07-10T05:12:19.997Z,941.42
2017-07-10T05:12:47.937Z,941.44
2017-07-10T05:13:16.085Z,941.44
2017-07-10T05:13:44.199Z,941.42
2017-07-10T05:14:12.216Z,941.46
2017-07-10T05:14:40.243Z,941.46
2017-07-10T05:15:08.360Z,941.41
2017-07-10T05:15:36.397Z,941.43
2017-07-10T05:16:04.433Z,941.42
2017-07-10T05:16:32.566Z,941.41
2017-07-10T05:17:00.618Z,941.44
2017-07-10T05:17:28.640Z,941.42
2017-07-10T05:17:56.658Z,941.45
2017-07-10T05:18:24.668Z,941.45
2017-07-10T05:18:52.795Z,941.44
2017-07-10T05:19:20.825Z,941.4
2017-07-10T05:19:48.915Z,941.43
2017-07-10T05:20:16.832Z,941.42
2017-07-10T05:20:44.732Z,941.41
2017-07-10T05:21:13.080Z,941.4
2017-07-10T05:21:41.192Z,941.41
2017-07-10T05:22:09.101Z,941.4
2017-07-10T05:22:37.233Z,941.38
2017-07-10T05:23:05.062Z,941.37
2017-07-10T05:23:32.789Z,941.39
2017-07-10T05:24:00.708Z,941.39
2017-07-10T05:24:28.645Z,941.35
2017-07-10T05:24:56.614Z,941.37
2017-07-10T05:25:24.664Z,941.33
2017-07-10T05:25:52.891Z,941.37
2017-07-10T05:26:20.909Z,941.35
2017-07-10T05:26:49.036Z,941.33
2017-07-10T05:27:17.059Z,941.34
2017-07-10T05:27:44.973Z,941.35
2017-07-10T05:28:13.105Z,941.3
2017-07-10T05:28:41.236Z,941.34
2017-07-10T05:29:09.263Z,941.33
2017-07-10T05:29:37.319Z,941.33
2017-07-10T05:30:05.438Z,941.36
2017-07-10T05:30:33.546Z,941.36
2017-07-10T05:31:01.680Z,941.37
2017-07-10T05:31:29.705Z,941.39
2017-07-10T05:31:57.764Z,941.4
2017-07-10T05:32:25.898Z,941.44
2017-07-10T05:32:53.929Z,941.41
2017-07-10T05:33:21.966Z,941.41
2017-07-10T05:33:50.116Z,941.38
2017-07-10T05:34:18.242Z,941.39
2017-07-10T05:34:46.164Z,941.39
2017-07-10T05:35:13.986Z,941.4
2017-07-10T05:35:42.024Z,941.39
2017-07-10T05:36:10.165Z,941.39
2017-07-10T05:36:38.197Z,941.41
2017-07-10T05:37:06.200Z,941.41
2017-07-10T05:37:34.039Z,941.39
2017-07-10T05:38:02.037Z,941.41
2017-07-10T05:38:30.144Z,941.4
2017-07-10T05:38:58.068Z,941.38
2017-07-10T05:39:26.122Z,941.36
2017-07-10T05:39:54.251Z,941.37
2017-07-10T05:40:22.064Z,941.38
2017-07-10T05:40:50.180Z,941.36
2017-07-10T05:41:18.191Z,941.39
2017-07-10T05:41:46.104Z,941.4
2017-07-10T05:42:14.214Z,941.42
2017-07-10T05:42:42.311Z,941.37
2017-07-10T05:43:10.335Z,941.39
2017-07-10T05:43:38.444Z,941.38
2017-07-10T05:44:06.360Z,941.4
2017-07-10T05:44:34.422Z,941.36
2017-07-10T05:45:02.550Z,941.38
2017-07-10T05:45:30.540Z,941.39
2017-07-10T05:45:58.467Z,941.38
2017-07-10T05:46:26.596Z,941.39
2017-07-10T05:46:54.750Z,941.36
2017-07-10T05:47:22.662Z,941.38
2017-07-10T05:47:50.675Z,941.37
2017-07-10T05:48:18.471Z,941.35
2017-07-10T05:48:46.509Z,941.35
2017-07-10T05:49:14.626Z,941.34
2017-07-10T05:49:42.744Z,941.32
2017-07-10T05:50:10.778Z,941.3
2017-07-10T05:50:38.899Z,941.29
2017-07-10T05:51:07.157Z,941.3
2017-07-10T05:51:35.075Z,941.3
2017-07-10T05:52:03.008Z,941.27